createdAt,value
2022-09-28T12:23:34.352Z,6.30
2022-09-28T12:26:05.743Z,4.70
2022-09-28T12:28:39.395Z,6.13
2022-09-28T12:31:16.093Z,5.22
2022-09-28T12:33:49.043Z,3.88
2022-09-28T12:36:32.552Z,7.30
2022-09-28T12:39:35.706Z,9.48
2022-09-28T12:42:29.165Z,4.60
2022-09-28T12:45:17.443Z,3.67
2022-09-28T12:48:11.537Z,3.80
2022-09-28T12:50:54.547Z,7.53
2022-09-28T12:53:40.455Z,7.95
2022-09-28T12:56:21.539Z,4.72
2022-09-28T12:59:01.887Z,5.75
2022-09-28T13:01:47.951Z,3.55
2022-09-28T13:04:44.046Z,6.72
2022-09-28T13:07:22.241Z,6.55
2022-09-28T13:10:02.420Z,3.40
2022-09-28T13:12:46.232Z,4.13
2022-09-28T13:15:27.764Z,5.25
2022-09-28T13:18:04.171Z,3.05
2022-09-28T13:20:41.183Z,3.58
2022-09-28T13:23:22.700Z,4.20
2022-09-28T13:25:56.536Z,3.55
2022-09-28T13:28:28.321Z,3.22
2022-09-28T13:33:36.768Z,6.00
2022-09-28T13:36:10.728Z,4.80
2022-09-28T13:38:50.892Z,5.38
2022-09-28T13:41:29.065Z,7.13
2022-09-28T13:44:29.213Z,5.97
2022-09-28T13:47:16.869Z,5.93
2022-09-28T13:49:58.661Z,4.80
2022-09-28T13:52:40.844Z,2.38
2022-09-28T13:55:33.015Z,4.45
2022-09-28T13:58:05.344Z,2.55
2022-09-28T14:00:39.758Z,2.97
2022-09-28T14:03:25.270Z,3.97
2022-09-28T14:06:05.820Z,3.60
2022-09-28T14:08:40.239Z,4.03
2022-09-28T14:11:49.818Z,4.00
2022-09-28T14:14:49.224Z,2.85
2022-09-28T14:17:59.064Z,3.50
2022-09-28T14:20:31.458Z,3.25
2022-09-28T14:23:39.657Z,4.15
2022-09-28T14:26:39.575Z,2.50
2022-09-28T14:29:28.438Z,4.57
2022-09-28T14:31:58.293Z,3.20
2022-09-28T14:34:37.593Z,3.22
2022-09-28T14:37:36.695Z,4.18
2022-09-28T14:40:34.612Z,4.45
2022-09-28T14:43:29.377Z,1.92
2022-09-28T14:46:36.131Z,2.13
2022-09-28T14:49:06.638Z,3.22
2022-09-28T14:52:13.562Z,7.10
2022-09-28T14:54:54.571Z,3.55
2022-09-28T14:57:26.481Z,3.50
2022-09-28T14:59:56.982Z,4.43
2022-09-28T15:02:28.960Z,6.10
2022-09-28T15:05:01.015Z,4.13
2022-09-28T15:07:43.422Z,4.50
2022-09-28T15:10:27.313Z,7.82
2022-09-28T15:12:57.649Z,5.50
2022-09-28T15:15:30.832Z,4.07
2022-09-28T15:18:09.405Z,3.42
2022-09-28T15:20:41.631Z,2.58
2022-09-28T15:23:25.600Z,3.70
2022-09-28T15:25:55.091Z,3.35
2022-09-28T15:28:25.180Z,4.20
2022-09-28T15:31:00.625Z,5.57
2022-09-28T15:33:48.280Z,3.92
2022-09-28T15:36:20.693Z,3.25
2022-09-28T15:38:56.513Z,5.65
2022-09-28T15:41:25.559Z,4.20
2022-09-28T15:44:08.469Z,4.85
2022-09-28T15:46:38.716Z,3.30
2022-09-28T15:49:08.373Z,4.18
2022-09-28T15:51:52.163Z,4.25
2022-09-28T15:54:24.937Z,4.60
2022-09-28T15:56:55.067Z,6.85
2022-09-28T15:59:30.765Z,2.97
2022-09-28T16:02:12.784Z,6.95
2022-09-28T16:04:50.472Z,4.90
2022-09-28T16:07:24.752Z,4.60
2022-09-28T16:10:02.784Z,4.38
2022-09-28T16:12:42.088Z,4.97
2022-09-28T16:15:20.186Z,4.00
2022-09-28T16:17:53.367Z,4.00
2022-09-28T16:20:31.978Z,5.95
2022-09-28T16:23:05.949Z,6.80
2022-09-28T16:25:39.457Z,5.40
2022-09-28T16:28:09.069Z,6.78
2022-09-28T16:30:36.936Z,7.35
2022-09-28T16:33:06.753Z,6.80
2022-09-28T16:35:51.331Z,10.00
2022-09-28T16:38:20.462Z,6.43
2022-09-28T16:40:52.676Z,6.00
2022-09-28T16:43:26.860Z,8.05
2022-09-28T16:45:57.610Z,11.65
2022-09-28T16:48:27.932Z,6.75
2022-09-28T16:50:57.608Z,6.65
2022-09-28T16:53:43.502Z,7.00
2022-09-28T16:56:13.801Z,12.30
2022-09-28T16:58:42.538Z,8.00
2022-09-28T17:01:12.927Z,8.63
2022-09-28T17:03:42.664Z,11.70
2022-09-28T17:06:12.968Z,10.82
2022-09-28T17:08:43.068Z,8.98
2022-09-28T17:11:20.149Z,6.18
2022-09-28T17:13:51.843Z,9.52
2022-09-28T17:16:37.285Z,8.32
2022-09-28T17:19:19.746Z,6.40
2022-09-28T17:21:48.189Z,6.60
2022-09-28T17:24:16.122Z,5.55
2022-09-28T17:26:46.940Z,12.87
2022-09-28T17:29:16.440Z,13.53
2022-09-28T17:31:45.621Z,13.02
2022-09-28T17:34:15.228Z,11.63
2022-09-28T17:36:43.867Z,12.63
2022-09-28T17:39:13.927Z,10.10
2022-09-28T17:41:44.731Z,13.93
2022-09-28T17:44:16.201Z,12.57
2022-09-28T17:46:48.660Z,14.67
2022-09-28T17:49:16.936Z,13.35
2022-09-28T17:51:44.834Z,9.00
2022-09-28T17:54:13.730Z,16.17
2022-09-28T17:56:42.425Z,10.57
2022-09-28T17:59:17.384Z,14.47
2022-09-28T18:01:45.520Z,11.47
2022-09-28T18:04:33.264Z,11.27
2022-09-28T18:07:01.477Z,16.77
2022-09-28T18:09:29.471Z,17.83
2022-09-28T18:12:01.078Z,20.00
2022-09-28T18:14:30.440Z,17.10
2022-09-28T18:16:58.439Z,18.17
2022-09-28T18:19:31.700Z,17.83
2022-09-28T18:22:01.449Z,10.17
2022-09-28T18:24:29.500Z,18.23
2022-09-28T18:26:57.334Z,8.03
2022-09-28T18:29:25.216Z,11.03
2022-09-28T18:31:54.445Z,7.53
2022-09-28T18:34:22.301Z,11.17
2022-09-28T18:36:50.148Z,12.60
2022-09-28T18:39:18.060Z,10.60
2022-09-28T18:41:45.924Z,22.47
2022-09-28T18:44:13.777Z,10.37
2022-09-28T18:46:43.606Z,12.07
2022-09-28T18:49:15.968Z,9.33
2022-09-28T18:51:43.824Z,10.40
2022-09-28T18:54:11.665Z,10.30
2022-09-28T18:56:39.506Z,7.53
2022-09-28T18:59:12.276Z,10.17
2022-09-28T19:01:41.514Z,9.77
2022-09-28T19:04:10.960Z,11.10
2022-09-28T19:06:41.552Z,7.00
2022-09-28T19:09:10.433Z,10.80
2022-09-28T19:11:38.307Z,10.27
2022-09-28T19:14:06.156Z,14.17
2022-09-28T19:16:34.726Z,9.23
2022-09-28T19:19:03.304Z,12.13
2022-09-28T19:21:31.820Z,14.30
2022-09-28T19:24:04.006Z,8.20
2022-09-28T19:26:32.910Z,8.07
2022-09-28T19:29:02.165Z,6.73
2022-09-28T19:31:30.169Z,12.53
2022-09-28T19:33:58.218Z,7.70
2022-09-28T19:36:28.555Z,9.07
2022-09-28T19:38:57.817Z,6.97
2022-09-28T19:41:51.020Z,9.73
2022-09-28T19:44:24.576Z,7.07
2022-09-28T19:46:54.739Z,7.73
2022-09-28T19:49:24.038Z,6.37
2022-09-28T19:52:12.769Z,5.47
2022-09-28T19:54:41.201Z,7.10
2022-09-28T19:57:11.575Z,8.20
2022-09-28T19:59:39.760Z,6.30
2022-09-28T20:02:08.863Z,7.73
2022-09-28T20:04:36.789Z,9.53
2022-09-28T20:07:05.465Z,8.03
2022-09-28T20:09:33.779Z,14.40
2022-09-28T20:12:01.945Z,11.00
2022-09-28T20:14:34.206Z,10.37
2022-09-28T20:17:06.155Z,12.07
2022-09-28T20:19:34.988Z,6.87
2022-09-28T20:22:03.437Z,7.80
2022-09-28T20:24:32.011Z,9.53
2022-09-28T20:27:01.352Z,11.87
2022-09-28T20:29:33.330Z,8.63
2022-09-28T20:32:01.829Z,12.10
2022-09-28T20:34:29.706Z,8.80
2022-09-28T20:36:57.578Z,7.30
2022-09-28T20:39:25.422Z,6.87
2022-09-28T20:41:53.593Z,10.23
2022-09-28T20:44:21.608Z,8.80
2022-09-28T20:46:52.845Z,9.73
2022-09-28T20:49:20.681Z,9.60
2022-09-28T20:51:48.681Z,14.13
2022-09-28T20:54:16.681Z,10.80
2022-09-28T20:56:44.814Z,9.70
2022-09-28T20:59:13.729Z,8.97
2022-09-28T21:01:41.911Z,9.30
2022-09-28T21:04:11.830Z,8.57
2022-09-28T21:06:42.078Z,10.83
2022-09-28T21:09:12.209Z,11.30
2022-09-28T21:11:40.314Z,13.77
2022-09-28T21:14:10.367Z,8.83
2022-09-28T21:16:38.506Z,7.70
2022-09-28T21:19:06.366Z,7.23
2022-09-28T21:21:35.831Z,13.90
2022-09-28T21:24:03.879Z,8.60
2022-09-28T21:26:32.290Z,9.63
2022-09-28T21:29:02.112Z,9.07
2022-09-28T21:31:32.782Z,9.70
2022-09-28T21:34:00.975Z,8.30
2022-09-28T21:36:28.851Z,8.87
2022-09-28T21:38:58.501Z,9.40
2022-09-28T21:41:26.835Z,11.37
2022-09-28T21:43:54.791Z,10.63
2022-09-28T21:46:22.792Z,11.93
2022-09-28T21:48:53.674Z,8.50
2022-09-28T21:51:22.147Z,11.43
2022-09-28T21:53:50.315Z,8.03
2022-09-28T21:56:19.531Z,10.43
2022-09-28T21:58:48.169Z,8.20
2022-09-28T22:01:19.530Z,7.23
2022-09-28T22:03:49.198Z,10.83
2022-09-28T22:06:18.415Z,10.97
2022-09-28T22:08:47.061Z,9.73
2022-09-28T22:11:17.258Z,8.37
2022-09-28T22:13:48.438Z,7.90
2022-09-28T22:16:18.539Z,8.83
2022-09-28T22:18:46.983Z,8.50
2022-09-28T22:21:16.772Z,9.80
2022-09-28T22:23:44.801Z,9.93
2022-09-28T22:26:15.241Z,9.47
2022-09-28T22:28:48.172Z,10.63
2022-09-28T22:31:16.898Z,10.87
2022-09-28T22:33:45.096Z,7.93
2022-09-28T22:36:16.675Z,7.93
2022-09-28T22:38:44.932Z,11.57
2022-09-28T22:41:13.640Z,6.70
2022-09-28T22:43:41.465Z,9.20
2022-09-28T22:46:12.631Z,5.83
2022-09-28T22:48:42.311Z,11.10
2022-09-28T22:51:10.197Z,7.47
2022-09-28T22:53:38.311Z,11.93
2022-09-28T22:56:07.003Z,8.03
2022-09-28T22:58:36.078Z,7.93
2022-09-28T23:01:08.486Z,6.33
2022-09-28T23:03:40.066Z,5.53
2022-09-28T23:06:09.174Z,7.83
2022-09-28T23:08:37.351Z,6.53
2022-09-28T23:11:05.798Z,6.83
2022-09-28T23:13:33.802Z,5.53
2022-09-28T23:16:03.760Z,5.67
2022-09-28T23:18:34.515Z,6.13
2022-09-28T23:21:05.944Z,6.73
2022-09-28T23:23:34.424Z,7.87
2022-09-28T23:26:10.396Z,4.10
2022-09-28T23:28:38.276Z,7.33
2022-09-28T23:31:09.712Z,6.67
2022-09-28T23:33:37.583Z,5.80
2022-09-28T23:36:07.937Z,7.20
2022-09-28T23:38:35.891Z,6.43
2022-09-28T23:41:03.781Z,5.30
2022-09-28T23:43:31.634Z,8.10
2022-09-28T23:45:59.536Z,4.37
2022-09-28T23:48:27.433Z,7.23
2022-09-28T23:50:55.358Z,9.37
2022-09-28T23:53:24.599Z,5.13
2022-09-28T23:55:52.495Z,4.37
2022-09-28T23:58:20.423Z,4.07
